Time;durP1;ratioP1;P1;durP2;ratioP2;P2;SDS_P1;SDS_P2;PMS_P1;PMS_P2;Temp;Humidity;BMP_temperature;BMP_pressure;BME280_temperature;BME280_humidity;BME280_pressure;Samples;Min_cycle;Max_cycle;Signal;HPM_P1;HPM_P2
2023/08/04 00:00:36;;;;;;;;;;;;;;;18.51;66.14;99997.88;4977362;28;6784;-72
2023/08/04 00:03:01;;;;;;;;;;;;;;;18.51;66.36;100005.66;4992898;28;6772;-74
2023/08/04 00:05:27;;;;;;;;;;;;;;;18.53;65.84;100003.94;4991567;28;6776;-71
2023/08/04 00:07:54;;;;;;;;;;;;;;;18.54;66.61;100000.50;4987133;28;6954;-73
2023/08/04 00:10:19;;;;;;;;;;;;;;;18.57;66.19;100010.91;4982700;28;7206;-72
2023/08/04 00:12:45;;;;;;;;;;;;;;;18.57;65.80;100005.72;4992021;28;6772;-72
2023/08/04 00:15:10;;;;;;;;;;;;;;;18.58;65.86;100003.13;4989168;28;6869;-72
2023/08/04 00:17:38;;;;;;;;;;;;;;;18.59;65.94;100002.28;4991348;28;6792;-73
2023/08/04 00:20:08;;;;;;;;;;;;;;;18.59;65.54;100004.00;4978088;28;7265;-72
2023/08/04 00:22:34;;;;;;;;;;;;;;;18.58;65.88;100007.47;4992256;28;7143;-72
2023/08/04 00:25:00;;;;;;;;;;;;;;;18.54;65.95;100000.50;4994310;28;6776;-73
2023/08/04 00:27:26;;;;;;;;;;;;;;;18.53;65.68;100009.13;4977461;28;7379;-72
2023/08/04 00:29:51;;;;;;;;;;;;;;;18.51;65.71;100003.06;4994384;28;6922;-72
2023/08/04 00:32:17;;;;;;;;;;;;;;;18.50;65.68;100011.72;4993303;28;6787;-73
2023/08/04 00:34:42;;;;;;;;;;;;;;;18.46;65.95;100014.28;4983228;28;7005;-72
2023/08/04 00:37:08;;;;;;;;;;;;;;;18.45;66.08;100006.47;4984259;28;8372;-72
2023/08/04 00:39:33;;;;;;;;;;;;;;;18.44;66.28;100005.59;4992240;28;6840;-73
2023/08/04 00:41:58;;;;;;;;;;;;;;;18.44;65.66;100009.94;4994641;28;6783;-72
2023/08/04 00:44:24;;;;;;;;;;;;;;;18.43;66.13;100018.56;4994776;28;7254;-72
2023/08/04 00:46:50;;;;;;;;;;;;;;;18.41;66.27;100018.53;4996946;28;6994;-72
2023/08/04 00:49:18;;;;;;;;;;;;;;;18.40;65.99;100024.59;4978393;28;6993;-72
2023/08/04 00:51:45;;;;;;;;;;;;;;;18.41;65.99;100021.13;4997255;28;6999;-72
2023/08/04 00:54:11;;;;;;;;;;;;;;;18.41;66.42;100023.75;4989095;28;7179;-73
2023/08/04 00:56:37;;;;;;;;;;;;;;;18.42;66.33;100028.06;4987551;28;7217;-73
2023/08/04 00:59:02;;;;;;;;;;;;;;;18.43;66.13;100019.41;4977046;28;6816;-72
2023/08/04 01:01:28;;;;;;;;;;;;;;;18.44;65.94;100022.91;4997453;28;6775;-72
2023/08/04 01:03:56;;;;;;;;;;;;;;;18.44;65.71;100023.75;4974870;28;6926;-72
2023/08/04 01:06:21;;;;;;;;;;;;;;;18.45;66.35;100027.22;4979894;28;7225;-72
2023/08/04 01:08:57;;;;;;;;;;;;;;;18.46;65.61;100032.44;4992783;28;7137;-72
2023/08/04 01:11:30;;;;;;;;;;;;;;;18.44;65.48;100026.34;4991405;28;6800;-72
2023/08/04 01:13:57;;;;;;;;;;;;;;;18.45;65.82;100029.81;4995044;28;7426;-72
2023/08/04 01:16:22;;;;;;;;;;;;;;;18.45;65.68;100032.41;4981235;28;6867;-72
2023/08/04 01:18:48;;;;;;;;;;;;;;;18.44;66.07;100031.53;4997138;28;7180;-73
2023/08/04 01:21:13;;;;;;;;;;;;;;;18.45;66.12;100037.63;4984854;28;6772;-73
2023/08/04 01:23:39;;;;;;;;;;;;;;;18.45;66.40;100038.50;4990323;28;7065;-72
2023/08/04 01:26:06;;;;;;;;;;;;;;;18.46;65.86;100041.94;4973342;28;7029;-73
2023/08/04 01:28:33;;;;;;;;;;;;;;;18.49;66.07;100038.50;4972169;28;6986;-73
2023/08/04 01:31:00;;;;;;;;;;;;;;;18.50;65.47;100040.25;4977787;28;6812;-72
2023/08/04 01:33:28;;;;;;;;;;;;;;;18.50;65.79;100040.25;4978147;28;7267;-72
2023/08/04 01:35:54;;;;;;;;;;;;;;;18.51;66.32;100048.06;4988264;28;7214;-72
2023/08/04 01:38:19;;;;;;;;;;;;;;;18.53;65.74;100046.34;4988650;28;7380;-73
2023/08/04 01:40:45;;;;;;;;;;;;;;;18.55;66.20;100054.16;4997042;28;6795;-72
2023/08/04 01:43:10;;;;;;;;;;;;;;;18.57;65.94;100047.25;5003936;28;6947;-72
2023/08/04 01:45:36;;;;;;;;;;;;;;;18.58;66.46;100051.56;4998691;28;6848;-72
2023/08/04 01:48:02;;;;;;;;;;;;;;;18.60;65.61;100058.53;4991848;28;6768;-71
2023/08/04 01:50:27;;;;;;;;;;;;;;;18.61;65.79;100061.97;4996128;28;6808;-72
2023/08/04 01:52:54;;;;;;;;;;;;;;;18.60;66.17;100058.53;5010203;28;6783;-72
2023/08/04 01:55:19;;;;;;;;;;;;;;;18.59;65.78;100051.59;4991384;28;6823;-72
2023/08/04 01:57:45;;;;;;;;;;;;;;;18.59;66.01;100054.19;4991891;28;6946;-72
2023/08/04 02:00:11;;;;;;;;;;;;;;;18.58;65.93;100057.63;4989847;28;6974;-72
2023/08/04 02:02:36;;;;;;;;;;;;;;;18.57;66.13;100057.63;4995781;28;6784;-73
2023/08/04 02:05:02;;;;;;;;;;;;;;;18.56;65.63;100054.16;4994614;28;6934;-72
2023/08/04 02:07:27;;;;;;;;;;;;;;;18.55;65.60;100054.16;4991771;28;6784;-73
2023/08/04 02:09:53;;;;;;;;;;;;;;;18.53;65.34;100048.94;4996641;28;6788;-72
2023/08/04 02:12:18;;;;;;;;;;;;;;;18.52;65.34;100054.09;4980753;28;7317;-71
2023/08/04 02:14:44;;;;;;;;;;;;;;;18.49;66.06;100057.53;4989381;28;10278;-73
2023/08/04 02:17:11;;;;;;;;;;;;;;;18.44;65.69;100056.63;5011114;28;7021;-72
2023/08/04 02:19:37;;;;;;;;;;;;;;;18.41;65.85;100060.06;5009422;28;6816;-72
2023/08/04 02:22:03;;;;;;;;;;;;;;;18.37;65.52;100060.91;4992783;28;7148;-72
2023/08/04 02:24:28;;;;;;;;;;;;;;;18.33;65.65;100059.09;4993008;28;6874;-72
2023/08/04 02:26:54;;;;;;;;;;;;;;;18.31;65.90;100060.81;4993350;28;6800;-73
2023/08/04 02:29:19;;;;;;;;;;;;;;;18.29;66.12;100065.97;4990567;28;6965;-77
2023/08/04 02:31:44;;;;;;;;;;;;;;;18.29;65.62;100072.91;4985197;28;10650;-75
2023/08/04 02:34:10;;;;;;;;;;;;;;;18.29;65.81;100075.50;4973987;28;7349;-73
2023/08/04 02:36:35;;;;;;;;;;;;;;;18.31;65.73;100072.06;4996573;28;6776;-76
2023/08/04 02:39:02;;;;;;;;;;;;;;;18.30;65.84;100072.94;4972221;28;7035;-75
2023/08/04 02:41:27;;;;;;;;;;;;;;;18.33;65.75;100077.25;4993893;28;6862;-76
2023/08/04 02:43:53;;;;;;;;;;;;;;;18.34;65.94;100076.41;4997204;28;6780;-76
2023/08/04 02:46:20;;;;;;;;;;;;;;;18.34;65.99;100076.41;4980771;28;7020;-75
2023/08/04 02:48:46;;;;;;;;;;;;;;;18.36;65.98;100079.03;4999005;28;7046;-76
2023/08/04 02:51:14;;;;;;;;;;;;;;;18.36;66.03;100077.31;4987819;28;7048;-74
2023/08/04 02:53:43;;;;;;;;;;;;;;;18.38;66.23;100079.91;4990833;28;7885;-76
2023/08/04 02:56:15;;;;;;;;;;;;;;;18.38;65.72;100078.19;4995969;28;8786;-77
2023/08/04 02:58:42;;;;;;;;;;;;;;;18.39;65.60;100079.06;4991504;28;7716;-73
2023/08/04 03:01:08;;;;;;;;;;;;;;;18.40;65.90;100086.00;4993952;28;7193;-72
2023/08/04 03:03:34;;;;;;;;;;;;;;;18.40;66.25;100081.66;4974690;28;6918;-72
2023/08/04 03:06:00;;;;;;;;;;;;;;;18.41;65.72;100078.22;4993608;28;7726;-72
2023/08/04 03:08:27;;;;;;;;;;;;;;;18.42;66.17;100079.97;4992186;28;6791;-72
2023/08/04 03:10:52;;;;;;;;;;;;;;;18.43;65.92;100084.28;4979630;28;7334;-72
2023/08/04 03:13:18;;;;;;;;;;;;;;;18.44;65.63;100091.22;4991733;28;8575;-72
2023/08/04 03:15:44;;;;;;;;;;;;;;;18.45;66.07;100089.50;4994869;28;7005;-73
2023/08/04 03:18:09;;;;;;;;;;;;;;;18.44;66.00;100098.16;4991490;28;6775;-73
2023/08/04 03:20:40;;;;;;;;;;;;;;;18.44;66.28;100095.56;4979835;28;7214;-71
2023/08/04 03:23:06;;;;;;;;;;;;;;;18.44;66.09;100098.16;4990861;28;7993;-72
2023/08/04 03:25:32;;;;;;;;;;;;;;;18.43;65.87;100093.81;4986238;28;6939;-72
2023/08/04 03:27:58;;;;;;;;;;;;;;;18.42;65.72;100099.84;4993002;28;7035;-72
2023/08/04 03:30:24;;;;;;;;;;;;;;;18.41;65.95;100104.16;4987676;28;6795;-72
2023/08/04 03:32:49;;;;;;;;;;;;;;;18.40;65.63;100101.56;4990591;28;7118;-72
2023/08/04 03:35:15;;;;;;;;;;;;;;;18.40;65.96;100104.16;4993775;28;7276;-72
2023/08/04 03:37:40;;;;;;;;;;;;;;;18.39;66.21;100107.59;4971398;28;8971;-71
2023/08/04 03:40:07;;;;;;;;;;;;;;;18.36;66.04;100100.66;4989942;28;6833;-72
2023/08/04 03:42:36;;;;;;;;;;;;;;;18.36;65.97;100104.97;5005916;28;6808;-73
2023/08/04 03:45:02;;;;;;;;;;;;;;;18.33;66.13;100100.59;4986339;28;6934;-72
2023/08/04 03:47:29;;;;;;;;;;;;;;;18.34;66.03;100104.09;5006947;28;7161;-71
2023/08/04 03:49:55;;;;;;;;;;;;;;;18.32;65.52;100110.13;4990364;28;6987;-72
2023/08/04 03:52:20;;;;;;;;;;;;;;;18.31;65.68;100098.03;4975195;28;7319;-72
2023/08/04 03:54:46;;;;;;;;;;;;;;;18.31;66.27;100104.91;4986450;28;7269;-72
2023/08/04 03:57:11;;;;;;;;;;;;;;;18.31;66.33;100107.50;4975881;28;6906;-72
2023/08/04 03:59:37;;;;;;;;;;;;;;;18.30;65.59;100106.66;4986525;28;7702;-74
2023/08/04 04:02:02;;;;;;;;;;;;;;;18.28;66.28;100102.28;4985231;28;6986;-71
2023/08/04 04:04:28;;;;;;;;;;;;;;;18.28;66.11;100108.34;4979891;28;6784;-74
2023/08/04 04:06:53;;;;;;;;;;;;;;;18.29;65.69;100106.63;4989171;28;6859;-72
2023/08/04 04:09:18;;;;;;;;;;;;;;;18.29;66.01;100117.00;4990341;28;7338;-72
2023/08/04 04:11:44;;;;;;;;;;;;;;;18.27;65.80;100116.13;4978562;28;8783;-72
2023/08/04 04:14:10;;;;;;;;;;;;;;;18.26;65.88;100117.84;4989155;28;6883;-71
2023/08/04 04:16:36;;;;;;;;;;;;;;;18.26;65.98;100122.16;4991674;28;7147;-72
2023/08/04 04:19:01;;;;;;;;;;;;;;;18.27;66.41;100136.88;4978806;28;7174;-72
2023/08/04 04:21:27;;;;;;;;;;;;;;;18.27;65.87;100134.28;4995754;28;7214;-72
2023/08/04 04:23:52;;;;;;;;;;;;;;;18.27;65.85;100136.88;4990739;28;6784;-71
2023/08/04 04:26:18;;;;;;;;;;;;;;;18.29;65.73;100142.94;4990017;28;6784;-71
2023/08/04 04:28:43;;;;;;;;;;;;;;;18.30;65.92;100136.91;4989086;28;8008;-72
2023/08/04 04:31:09;;;;;;;;;;;;;;;18.30;66.10;100142.97;4980630;28;6963;-74
2023/08/04 04:33:34;;;;;;;;;;;;;;;18.32;66.00;100142.97;4977247;28;7118;-74
2023/08/04 04:35:59;;;;;;;;;;;;;;;18.32;65.91;100140.38;5003973;28;6866;-71
2023/08/04 04:38:28;;;;;;;;;;;;;;;18.34;66.04;100143.00;5001217;28;6792;-72
2023/08/04 04:40:58;;;;;;;;;;;;;;;18.36;65.81;100142.19;5004657;28;6812;-72
2023/08/04 04:43:24;;;;;;;;;;;;;;;18.37;65.87;100143.03;4986991;28;6994;-72
2023/08/04 04:45:51;;;;;;;;;;;;;;;18.38;65.53;100137.88;4986234;28;6861;-72
2023/08/04 04:48:17;;;;;;;;;;;;;;;18.40;65.63;100143.94;4992191;28;6984;-73
2023/08/04 04:50:42;;;;;;;;;;;;;;;18.42;65.77;100139.63;4991932;28;7156;-73
2023/08/04 04:53:08;;;;;;;;;;;;;;;18.44;65.93;100140.50;4986862;28;7596;-72
2023/08/04 04:55:33;;;;;;;;;;;;;;;18.48;65.77;100140.56;4982622;28;7149;-74
2023/08/04 04:57:59;;;;;;;;;;;;;;;18.50;65.97;100144.03;5000612;28;7238;-74
2023/08/04 05:00:24;;;;;;;;;;;;;;;18.52;66.09;100142.34;4993598;28;6788;-75
2023/08/04 05:02:51;;;;;;;;;;;;;;;18.52;66.02;100148.41;4988931;28;7062;-72
2023/08/04 05:05:16;;;;;;;;;;;;;;;18.55;65.89;100150.19;4992390;28;7253;-72
2023/08/04 05:07:42;;;;;;;;;;;;;;;18.56;65.83;100155.34;5009071;28;6807;-74
2023/08/04 05:10:08;;;;;;;;;;;;;;;18.58;65.91;100152.78;5006861;28;6994;-72
2023/08/04 05:12:33;;;;;;;;;;;;;;;18.60;65.95;100149.38;5006739;28;6799;-71
2023/08/04 05:14:59;;;;;;;;;;;;;;;18.64;65.59;100155.47;4989271;28;6871;-71
2023/08/04 05:17:24;;;;;;;;;;;;;;;18.66;66.32;100152.88;4996270;28;6795;-72
2023/08/04 05:19:50;;;;;;;;;;;;;;;18.69;65.83;100158.97;5007929;28;6871;-72
2023/08/04 05:22:15;;;;;;;;;;;;;;;18.70;65.86;100160.69;4994359;28;6788;-71
2023/08/04 05:24:41;;;;;;;;;;;;;;;18.73;65.80;100158.16;4992562;28;6868;-72
2023/08/04 05:27:07;;;;;;;;;;;;;;;18.77;65.95;100158.19;4980984;28;7122;-74
2023/08/04 05:29:33;;;;;;;;;;;;;;;18.80;66.04;100160.81;4980689;28;7268;-74
2023/08/04 05:31:58;;;;;;;;;;;;;;;18.82;66.24;100159.09;4980631;28;7321;-74
2023/08/04 05:34:24;;;;;;;;;;;;;;;18.85;65.98;100161.72;4991467;28;6974;-74
2023/08/04 05:36:49;;;;;;;;;;;;;;;18.93;65.64;100174.78;4996433;28;7275;-74
2023/08/04 05:39:15;;;;;;;;;;;;;;;18.96;65.61;100173.09;4970791;28;7217;-72
2023/08/04 05:41:44;;;;;;;;;;;;;;;18.99;65.91;100170.50;4997757;28;6945;-73
2023/08/04 05:44:09;;;;;;;;;;;;;;;19.04;65.73;100178.38;4993884;28;6828;-71
2023/08/04 05:46:35;;;;;;;;;;;;;;;19.09;66.13;100186.22;4995428;28;8523;-72
2023/08/04 05:49:00;;;;;;;;;;;;;;;19.15;66.24;100186.28;4989026;28;7205;-72
2023/08/04 05:51:26;;;;;;;;;;;;;;;19.18;65.30;100186.31;4986044;28;7245;-73
2023/08/04 05:53:51;;;;;;;;;;;;;;;19.21;65.42;100191.53;4993035;28;7597;-72
2023/08/04 05:56:17;;;;;;;;;;;;;;;19.24;65.95;100188.09;4993254;28;7119;-74
2023/08/04 05:58:42;;;;;;;;;;;;;;;19.26;65.54;100186.38;4992575;28;6946;-74
2023/08/04 06:01:08;;;;;;;;;;;;;;;19.28;65.73;100189.88;4994986;28;6792;-72
2023/08/04 06:03:33;;;;;;;;;;;;;;;19.30;65.78;100198.53;4991162;28;6795;-72
2023/08/04 06:05:59;;;;;;;;;;;;;;;19.33;65.98;100198.56;4981296;28;6994;-72
2023/08/04 06:08:24;;;;;;;;;;;;;;;19.37;65.26;100202.94;4994202;28;7313;-72
2023/08/04 06:10:50;;;;;;;;;;;;;;;19.43;65.83;100202.13;4977693;28;7026;-72
2023/08/04 06:13:15;;;;;;;;;;;;;;;19.50;65.36;100213.44;4992501;28;6795;-72
2023/08/04 06:15:41;;;;;;;;;;;;;;;19.54;64.90;100207.38;4992164;28;6795;-72
2023/08/04 06:18:06;;;;;;;;;;;;;;;19.59;65.39;100205.72;4989975;28;6965;-72
2023/08/04 06:20:32;;;;;;;;;;;;;;;19.63;65.59;100210.06;4984751;28;7183;-71
2023/08/04 06:22:58;;;;;;;;;;;;;;;19.69;65.11;100215.31;4977999;28;6964;-72
2023/08/04 06:25:23;;;;;;;;;;;;;;;19.77;65.59;100217.09;4996889;28;6953;-72
2023/08/04 06:27:53;;;;;;;;;;;;;;;19.83;65.14;100223.22;4988273;28;6792;-71
2023/08/04 06:30:18;;;;;;;;;;;;;;;19.91;65.56;100223.25;5008810;28;7326;-72
2023/08/04 06:32:46;;;;;;;;;;;;;;;19.98;64.95;100224.19;4994486;28;7230;-72
2023/08/04 06:35:11;;;;;;;;;;;;;;;20.05;65.01;100232.94;5005850;28;7255;-72
2023/08/04 06:37:37;;;;;;;;;;;;;;;20.10;65.22;100228.63;4990088;28;6953;-71
2023/08/04 06:40:04;;;;;;;;;;;;;;;20.14;64.74;100232.09;4994901;28;7844;-72
2023/08/04 06:42:30;;;;;;;;;;;;;;;20.21;64.89;100241.69;4980259;28;7393;-72
2023/08/04 06:44:56;;;;;;;;;;;;;;;20.28;64.49;100240.00;4981152;28;7195;-71
2023/08/04 06:47:22;;;;;;;;;;;;;;;20.33;64.57;100241.75;4989773;28;6795;-71
2023/08/04 06:49:47;;;;;;;;;;;;;;;20.33;63.93;100233.94;4976042;28;7997;-71
2023/08/04 06:52:13;;;;;;;;;;;;;;;20.36;64.40;100243.50;4992915;28;6808;-71
2023/08/04 06:54:38;;;;;;;;;;;;;;;20.39;64.52;100244.41;4991153;28;6866;-71
2023/08/04 06:57:05;;;;;;;;;;;;;;;20.45;64.26;100259.19;4997930;28;7292;-71
2023/08/04 06:59:30;;;;;;;;;;;;;;;20.50;64.44;100248.78;5009835;28;6887;-72
2023/08/04 07:01:56;;;;;;;;;;;;;;;20.57;64.12;100257.50;5012264;28;6951;-71
2023/08/04 07:04:21;;;;;;;;;;;;;;;20.60;64.23;100253.16;4971618;28;7026;-72
2023/08/04 07:06:47;;;;;;;;;;;;;;;20.66;64.04;100255.78;5004908;28;6988;-71
2023/08/04 07:09:12;;;;;;;;;;;;;;;20.74;63.76;100260.16;4983795;28;6823;-71
2023/08/04 07:11:38;;;;;;;;;;;;;;;20.80;63.59;100255.81;4983877;28;7581;-72
2023/08/04 07:14:03;;;;;;;;;;;;;;;20.85;63.57;100268.91;4991352;28;7022;-71
2023/08/04 07:16:29;;;;;;;;;;;;;;;20.89;63.81;100268.06;4985516;28;6981;-71
2023/08/04 07:18:54;;;;;;;;;;;;;;;20.94;63.42;100268.06;4991690;28;6779;-72
2023/08/04 07:21:20;;;;;;;;;;;;;;;20.99;63.58;100260.28;4992443;28;7425;-72
2023/08/04 07:23:45;;;;;;;;;;;;;;;21.04;63.63;100267.22;4991421;28;6859;-72
2023/08/04 07:26:10;;;;;;;;;;;;;;;21.12;63.62;100263.78;4987882;28;7218;-72
2023/08/04 07:28:37;;;;;;;;;;;;;;;21.20;63.23;100264.69;4989519;28;6913;-72
2023/08/04 07:31:07;;;;;;;;;;;;;;;21.25;62.98;100267.28;4992148;28;7202;-71
2023/08/04 07:33:33;;;;;;;;;;;;;;;21.28;63.07;100268.13;4994826;28;7109;-72
2023/08/04 07:35:59;;;;;;;;;;;;;;;21.34;63.17;100270.75;4987833;28;6820;-72
2023/08/04 07:38:27;;;;;;;;;;;;;;;21.45;63.40;100269.91;4991691;28;7042;-71
2023/08/04 07:40:52;;;;;;;;;;;;;;;21.56;62.88;100277.75;4992247;28;6808;-72
2023/08/04 07:43:18;;;;;;;;;;;;;;;21.66;62.91;100269.06;4991903;28;6939;-72
2023/08/04 07:45:43;;;;;;;;;;;;;;;21.76;62.99;100273.44;4988953;28;6787;-72
2023/08/04 07:48:09;;;;;;;;;;;;;;;21.92;62.70;100281.22;5006299;28;7072;-72
2023/08/04 07:50:36;;;;;;;;;;;;;;;22.05;62.67;100274.25;4981184;28;7010;-72
2023/08/04 07:53:02;;;;;;;;;;;;;;;22.21;62.43;100272.50;5000118;28;7271;-72
2023/08/04 07:55:27;;;;;;;;;;;;;;;22.36;62.47;100275.94;5010642;28;7181;-72
2023/08/04 07:57:52;;;;;;;;;;;;;;;22.47;62.03;100268.94;4993688;28;7223;-73
2023/08/04 08:00:18;;;;;;;;;;;;;;;22.58;61.57;100272.41;5002265;28;6815;-71
2023/08/04 08:02:44;;;;;;;;;;;;;;;22.69;61.57;100275.00;4990499;28;6852;-72
2023/08/04 08:05:09;;;;;;;;;;;;;;;22.77;61.33;100271.50;4994194;28;6875;-72
2023/08/04 08:07:35;;;;;;;;;;;;;;;22.84;60.95;100276.66;4980203;28;8549;-72
2023/08/04 08:10:01;;;;;;;;;;;;;;;22.94;60.54;100280.13;4988919;28;6935;-73
2023/08/04 08:12:26;;;;;;;;;;;;;;;23.03;60.93;100280.06;4992119;28;7052;-71
2023/08/04 08:14:52;;;;;;;;;;;;;;;23.15;60.01;100288.72;4980246;28;7101;-72
2023/08/04 08:17:18;;;;;;;;;;;;;;;23.24;59.94;100288.66;4997053;28;6961;-72
2023/08/04 08:19:43;;;;;;;;;;;;;;;23.25;59.62;100290.41;5006085;28;7227;-71
2023/08/04 08:22:09;;;;;;;;;;;;;;;23.27;59.29;100290.38;4988553;28;7178;-72
2023/08/04 08:24:34;;;;;;;;;;;;;;;23.30;59.27;100286.03;4990420;28;6973;-72
2023/08/04 08:27:00;;;;;;;;;;;;;;;23.41;60.00;100288.56;4997672;28;7845;-73
2023/08/04 08:29:25;;;;;;;;;;;;;;;23.56;59.40;100294.56;4990073;28;6844;-72
2023/08/04 08:31:50;;;;;;;;;;;;;;;23.66;58.76;100290.13;4979808;28;6957;-72
2023/08/04 08:34:16;;;;;;;;;;;;;;;23.72;58.39;100296.19;4984469;28;6784;-72
2023/08/04 08:36:42;;;;;;;;;;;;;;;23.78;58.01;100302.25;4993350;28;7237;-72
2023/08/04 08:39:07;;;;;;;;;;;;;;;23.86;58.91;100297.84;4987842;28;6792;-72
2023/08/04 08:41:33;;;;;;;;;;;;;;;24.06;58.94;100295.03;4988613;28;7137;-72
2023/08/04 08:43:58;;;;;;;;;;;;;;;24.44;59.56;100300.78;5002624;28;6791;-73
2023/08/04 08:46:25;;;;;;;;;;;;;;;24.92;58.85;100296.75;5002295;28;6803;-72
2023/08/04 08:48:57;;;;;;;;;;;;;;;25.32;58.09;100306.69;4995744;28;7280;-72
2023/08/04 08:51:23;;;;;;;;;;;;;;;25.55;57.33;100294.13;5005584;28;6965;-72
2023/08/04 08:53:49;;;;;;;;;;;;;;;25.71;56.45;100303.47;4994764;28;6864;-72
2023/08/04 08:56:18;;;;;;;;;;;;;;;25.82;55.72;100305.03;4994686;28;6815;-72
2023/08/04 08:58:45;;;;;;;;;;;;;;;25.83;54.68;100306.78;4998441;28;6827;-73
2023/08/04 09:01:10;;;;;;;;;;;;;;;25.74;54.23;100307.81;4997429;28;6857;-72
2023/08/04 09:03:37;;;;;;;;;;;;;;;25.69;54.27;100309.63;4984699;28;6959;-72
2023/08/04 09:06:03;;;;;;;;;;;;;;;25.58;53.46;100310.66;4990421;28;6991;-72
2023/08/04 09:08:29;;;;;;;;;;;;;;;25.44;53.36;100304.75;4989527;28;6979;-72
2023/08/04 09:10:59;;;;;;;;;;;;;;;25.32;53.76;100322.41;4975290;28;7157;-72
2023/08/04 09:13:28;;;;;;;;;;;;;;;25.34;53.62;100314.50;4994571;28;6820;-72
2023/08/04 09:15:58;;;;;;;;;;;;;;;25.46;53.60;100314.34;4992485;28;6812;-72
2023/08/04 09:18:29;;;;;;;;;;;;;;;25.67;53.26;100319.28;4991675;28;6800;-72
2023/08/04 09:21:08;;;;;;;;;;;;;;;25.74;52.87;100320.94;4996695;28;7264;-73
2023/08/04 09:23:47;;;;;;;;;;;;;;;25.64;51.86;100317.56;4991393;28;6823;-73
2023/08/04 09:26:13;;;;;;;;;;;;;;;25.54;52.17;100322.13;5000559;28;7359;-72
2023/08/04 09:28:38;;;;;;;;;;;;;;;25.56;52.60;100320.31;4993504;28;6848;-72
2023/08/04 09:31:08;;;;;;;;;;;;;;;26.07;53.97;100321.22;5013596;28;6973;-72
2023/08/04 09:33:38;;;;;;;;;;;;;;;26.95;52.50;100321.38;4992348;28;6951;-73
2023/08/04 09:36:12;;;;;;;;;;;;;;;27.89;51.01;100313.94;4979073;28;7053;-72
2023/08/04 09:38:39;;;;;;;;;;;;;;;28.50;49.20;100318.53;5007691;28;6823;-72
2023/08/04 09:41:07;;;;;;;;;;;;;;;28.83;48.03;100314.09;4998563;28;6808;-72
2023/08/04 09:43:33;;;;;;;;;;;;;;;28.96;47.24;100313.72;4977043;28;6964;-72
2023/08/04 09:46:06;;;;;;;;;;;;;;;28.76;46.12;100317.78;4976389;28;7173;-72
2023/08/04 09:48:33;;;;;;;;;;;;;;;28.38;46.24;100323.22;4987411;28;7900;-72
2023/08/04 09:51:13;;;;;;;;;;;;;;;27.95;46.59;100327.81;4993466;28;6804;-72
2023/08/04 09:53:38;;;;;;;;;;;;;;;27.58;46.96;100329.59;4993137;28;6837;-72
2023/08/04 09:56:04;;;;;;;;;;;;;;;27.25;47.60;100318.97;4995831;28;6796;-72
2023/08/04 09:58:30;;;;;;;;;;;;;;;26.99;47.70;100332.66;4994188;28;6891;-72
2023/08/04 10:00:57;;;;;;;;;;;;;;;26.78;47.83;100329.56;4996474;28;6835;-72
2023/08/04 10:03:23;;;;;;;;;;;;;;;26.65;47.46;100330.72;4992829;28;6860;-72
2023/08/04 10:05:49;;;;;;;;;;;;;;;26.52;47.52;100333.59;4994140;28;7263;-72
2023/08/04 10:08:16;;;;;;;;;;;;;;;26.48;47.46;100332.78;4989570;28;6792;-71
2023/08/04 10:10:42;;;;;;;;;;;;;;;26.76;48.25;100336.63;4989725;28;7733;-72
2023/08/04 10:13:08;;;;;;;;;;;;;;;27.50;48.17;100330.69;5008165;28;6983;-71
2023/08/04 10:15:34;;;;;;;;;;;;;;;28.24;46.28;100330.66;4979185;28;7028;-72
2023/08/04 10:18:00;;;;;;;;;;;;;;;28.84;45.27;100325.47;4993464;28;7151;-71
2023/08/04 10:20:27;;;;;;;;;;;;;;;29.59;45.48;100323.22;4993855;28;7144;-71
2023/08/04 10:22:52;;;;;;;;;;;;;;;30.31;43.87;100319.91;4992889;28;7310;-72
2023/08/04 10:25:18;;;;;;;;;;;;;;;30.49;42.61;100328.09;5006979;28;6796;-70
2023/08/04 10:27:50;;;;;;;;;;;;;;;30.20;42.08;100330.88;4990538;28;6852;-73
2023/08/04 10:30:16;;;;;;;;;;;;;;;29.62;41.22;100328.41;5000471;28;7099;-72
2023/08/04 10:32:42;;;;;;;;;;;;;;;29.03;42.47;100330.22;4996095;28;6954;-73
2023/08/04 10:35:19;;;;;;;;;;;;;;;28.44;42.56;100331.88;4993035;28;6799;-70
2023/08/04 10:37:59;;;;;;;;;;;;;;;28.03;43.86;100327.66;4992150;28;6987;-70
2023/08/04 10:40:31;;;;;;;;;;;;;;;27.80;44.24;100331.72;4978204;28;7000;-70
2023/08/04 10:43:04;;;;;;;;;;;;;;;27.68;44.89;100329.38;4996346;28;7089;-70
2023/08/04 10:45:53;;;;;;;;;;;;;;;27.63;44.24;100324.22;4981494;28;9323;-73
2023/08/04 10:48:20;;;;;;;;;;;;;;;27.63;44.38;100331.28;4993527;28;6828;-72
2023/08/04 10:50:47;;;;;;;;;;;;;;;27.70;44.08;100320.56;4996334;28;7453;-71
2023/08/04 10:53:14;;;;;;;;;;;;;;;27.93;44.15;100320.88;4994959;28;6879;-70
2023/08/04 10:55:54;;;;;;;;;;;;;;;28.26;44.18;100324.44;4990004;28;6884;-71
2023/08/04 10:58:19;;;;;;;;;;;;;;;28.71;44.18;100324.09;4974343;28;7165;-71
2023/08/04 11:00:45;;;;;;;;;;;;;;;29.06;42.59;100324.81;5013238;28;7990;-71
2023/08/04 11:03:27;;;;;;;;;;;;;;;29.27;42.35;100325.09;4991760;28;6982;-72
2023/08/04 11:05:53;;;;;;;;;;;;;;;29.38;41.94;100333.53;4993835;28;6800;-71
2023/08/04 11:08:20;;;;;;;;;;;;;;;29.55;41.98;100340.06;4993360;28;6800;-70
2023/08/04 11:10:51;;;;;;;;;;;;;;;29.70;41.52;100326.38;5000923;28;6807;-72
2023/08/04 11:13:18;;;;;;;;;;;;;;;29.82;40.48;100334.78;4992717;28;7395;-71
2023/08/04 11:15:45;;;;;;;;;;;;;;;30.04;40.88;100324.38;4994187;28;6808;-72
2023/08/04 11:18:11;;;;;;;;;;;;;;;30.23;40.06;100334.31;5009960;28;7100;-70
2023/08/04 11:20:39;;;;;;;;;;;;;;;30.20;39.52;100332.63;4988217;28;6985;-72
2023/08/04 11:23:04;;;;;;;;;;;;;;;30.07;39.75;100332.19;4990698;28;6792;-73
2023/08/04 11:25:35;;;;;;;;;;;;;;;29.91;39.67;100335.34;4986815;28;8159;-72
2023/08/04 11:28:02;;;;;;;;;;;;;;;29.87;39.69;100328.44;4986317;28;7339;-72
2023/08/04 11:30:27;;;;;;;;;;;;;;;29.95;39.59;100336.13;5005060;28;7211;-71
2023/08/04 11:32:53;;;;;;;;;;;;;;;30.05;40.11;100337.56;4985799;28;7160;-72
2023/08/04 11:35:19;;;;;;;;;;;;;;;30.06;39.31;100333.13;4992929;28;6844;-72
2023/08/04 11:37:45;;;;;;;;;;;;;;;29.94;39.63;100339.69;4978246;28;7284;-73
2023/08/04 11:40:22;;;;;;;;;;;;;;;29.71;38.99;100341.28;4989594;28;6860;-72
2023/08/04 11:42:48;;;;;;;;;;;;;;;29.36;39.48;100335.38;4992052;28;6887;-73
2023/08/04 11:45:14;;;;;;;;;;;;;;;28.92;39.50;100344.59;4992140;28;6975;-70
2023/08/04 11:47:40;;;;;;;;;;;;;;;28.49;39.50;100336.09;4984065;28;7489;-71
2023/08/04 11:50:07;;;;;;;;;;;;;;;28.22;40.29;100332.47;4986626;28;6942;-72
2023/08/04 11:52:37;;;;;;;;;;;;;;;28.13;40.67;100342.28;4989786;28;6864;-71
2023/08/04 11:55:05;;;;;;;;;;;;;;;28.19;41.15;100348.31;4984979;28;6819;-71
2023/08/04 11:57:30;;;;;;;;;;;;;;;28.21;41.08;100342.13;4975357;28;7096;-72
2023/08/04 11:59:57;;;;;;;;;;;;;;;28.17;40.82;100350.09;4996144;28;7567;-71
2023/08/04 12:02:24;;;;;;;;;;;;;;;28.07;41.40;100347.72;5004926;28;6812;-70
2023/08/04 12:05:13;;;;;;;;;;;;;;;28.41;41.11;100344.22;4989335;28;6812;-71
2023/08/04 12:07:38;;;;;;;;;;;;;;;29.26;41.26;100347.97;4997136;28;7032;-71
2023/08/04 12:10:05;;;;;;;;;;;;;;;29.87;39.10;100348.72;4996927;28;6779;-72
2023/08/04 12:12:38;;;;;;;;;;;;;;;30.06;39.20;100343.69;4987218;28;8181;-71
2023/08/04 12:15:04;;;;;;;;;;;;;;;30.16;38.94;100344.25;4986522;28;7050;-72
2023/08/04 12:17:41;;;;;;;;;;;;;;;30.65;37.96;100346.06;4991457;28;6780;-73
2023/08/04 12:20:11;;;;;;;;;;;;;;;31.01;37.98;100349.09;4992518;28;6993;-72
2023/08/04 12:22:38;;;;;;;;;;;;;;;31.13;37.18;100341.59;4988834;28;6895;-72
2023/08/04 12:25:05;;;;;;;;;;;;;;;31.09;36.81;100348.81;4989750;28;7387;-72
2023/08/04 12:27:31;;;;;;;;;;;;;;;30.91;36.76;100358.31;4992825;28;6959;-72
2023/08/04 12:29:56;;;;;;;;;;;;;;;30.61;37.09;100355.88;4990497;28;6796;-72
2023/08/04 12:32:22;;;;;;;;;;;;;;;30.53;37.29;100363.22;5008048;28;7207;-72
2023/08/04 12:34:47;;;;;;;;;;;;;;;30.76;36.50;100354.47;4977996;28;7138;-73
2023/08/04 12:37:13;;;;;;;;;;;;;;;30.73;36.24;100357.25;4985418;28;6808;-73
2023/08/04 12:39:38;;;;;;;;;;;;;;;30.54;36.38;100355.25;4989700;28;6944;-72
2023/08/04 12:42:04;;;;;;;;;;;;;;;30.60;36.70;100362.09;4969678;28;8186;-72
2023/08/04 12:44:30;;;;;;;;;;;;;;;30.97;36.62;100359.88;4993710;28;6787;-72